Time;durP1;ratioP1;P1;durP2;ratioP2;P2;SDS_P1;SDS_P2;PMS_P1;PMS_P2;Temp;Humidity;BMP_temperature;BMP_pressure;BME280_temperature;BME280_humidity;BME280_pressure;Samples;Min_cycle;Max_cycle;Signal;HPM_P1;HPM_P2
2023/04/27 00:01:47;;;;;;;;;;;;;;;12.24;100.00;99101.47;5036200;28;19960;-39
2023/04/27 00:04:13;;;;;;;;;;;;;;;11.98;100.00;99098.09;5038470;28;19956;-39
2023/04/27 00:06:38;;;;;;;;;;;;;;;11.84;100.00;99097.72;5038374;28;20372;-39
2023/04/27 00:09:03;;;;;;;;;;;;;;;11.91;100.00;99094.06;5038651;28;20439;-39
2023/04/27 00:11:28;;;;;;;;;;;;;;;11.76;100.00;99102.31;5038374;28;19921;-39
2023/04/27 00:13:54;;;;;;;;;;;;;;;11.83;100.00;99106.34;5037722;28;20867;-39
2023/04/27 00:16:19;;;;;;;;;;;;;;;11.88;100.00;99105.34;5040652;28;20414;-39
2023/04/27 00:18:44;;;;;;;;;;;;;;;11.71;100.00;99107.63;5040026;28;19921;-39
2023/04/27 00:21:10;;;;;;;;;;;;;;;11.69;100.00;99105.09;5039280;28;19920;-39
2023/04/27 00:23:35;;;;;;;;;;;;;;;11.33;100.00;99117.50;5043832;28;19935;-39
2023/04/27 00:26:00;;;;;;;;;;;;;;;11.06;100.00;99129.53;5041297;28;20403;-39
2023/04/27 00:28:25;;;;;;;;;;;;;;;10.14;100.00;99158.03;5048925;28;19928;-39
2023/04/27 00:30:53;;;;;;;;;;;;;;;10.52;100.00;99158.69;5041694;28;20537;-39
2023/04/27 00:33:18;;;;;;;;;;;;;;;10.46;100.00;99163.13;5040398;28;19927;-39
2023/04/27 00:35:44;;;;;;;;;;;;;;;9.67;100.00;99193.56;5023746;28;19925;-39
2023/04/27 00:38:10;;;;;;;;;;;;;;;9.74;100.00;99189.94;5042452;28;19920;-39
2023/04/27 00:40:35;;;;;;;;;;;;;;;9.64;100.00;99179.03;5042558;28;19928;-39
2023/04/27 00:43:01;;;;;;;;;;;;;;;9.84;100.00;99187.09;5040295;28;19932;-39
2023/04/27 00:45:26;;;;;;;;;;;;;;;10.25;100.00;99167.13;5041974;28;20474;-39
2023/04/27 00:47:51;;;;;;;;;;;;;;;10.31;100.00;99165.28;5040042;28;19923;-39
2023/04/27 00:50:17;;;;;;;;;;;;;;;10.32;100.00;99170.41;5041407;28;20319;-39
2023/04/27 00:52:43;;;;;;;;;;;;;;;10.13;100.00;99182.91;5023186;28;19928;-38
2023/04/27 00:55:08;;;;;;;;;;;;;;;10.55;100.00;99158.59;5041456;28;19921;-39
2023/04/27 00:57:33;;;;;;;;;;;;;;;10.22;100.00;99174.94;5044159;28;19924;-39
2023/04/27 00:59:59;;;;;;;;;;;;;;;10.22;100.00;99176.69;5040960;28;19920;-39
2023/04/27 01:02:25;;;;;;;;;;;;;;;10.63;100.00;99172.94;5043151;28;19966;-39
2023/04/27 01:04:50;;;;;;;;;;;;;;;10.14;100.00;99178.59;5041485;28;19986;-39
2023/04/27 01:07:16;;;;;;;;;;;;;;;10.59;100.00;99170.50;5041428;28;19916;-39
2023/04/27 01:09:41;;;;;;;;;;;;;;;10.76;100.00;99157.94;5042597;28;19990;-39
2023/04/27 01:12:06;;;;;;;;;;;;;;;10.79;100.00;99151.88;5042184;28;19916;-39
2023/04/27 01:14:31;;;;;;;;;;;;;;;10.64;100.00;99148.03;5043778;28;20553;-39
2023/04/27 01:16:57;;;;;;;;;;;;;;;10.86;100.00;99140.50;5040160;28;20572;-39
2023/04/27 01:19:22;;;;;;;;;;;;;;;10.85;100.00;99137.06;5041934;28;19987;-39
2023/04/27 01:21:47;;;;;;;;;;;;;;;10.82;100.00;99137.16;5040462;28;19932;-39
2023/04/27 01:24:12;;;;;;;;;;;;;;;10.70;100.00;99142.69;5043311;28;19920;-39
2023/04/27 01:26:38;;;;;;;;;;;;;;;10.54;100.00;99141.47;5044449;28;19925;-38
2023/04/27 01:29:03;;;;;;;;;;;;;;;10.68;100.00;99141.91;5041310;28;19924;-39
2023/04/27 01:31:28;;;;;;;;;;;;;;;10.48;100.00;99146.81;5041144;28;20011;-39
2023/04/27 01:33:53;;;;;;;;;;;;;;;10.33;100.00;99148.94;5039530;28;19921;-39
2023/04/27 01:36:19;;;;;;;;;;;;;;;10.35;100.00;99157.44;5038421;28;20399;-39
2023/04/27 01:38:44;;;;;;;;;;;;;;;10.37;100.00;99158.25;5040076;28;19956;-39
2023/04/27 01:41:09;;;;;;;;;;;;;;;10.35;100.00;99157.44;5046522;28;19956;-39
2023/04/27 01:43:38;;;;;;;;;;;;;;;10.46;100.00;99160.53;5040382;28;19951;-39
2023/04/27 01:46:10;;;;;;;;;;;;;;;10.61;100.00;99154.13;5039969;28;19928;-39
2023/04/27 01:48:35;;;;;;;;;;;;;;;10.41;100.00;99154.69;5039473;28;19917;-39
2023/04/27 01:51:00;;;;;;;;;;;;;;;10.48;100.00;99157.94;5040063;28;19973;-39
2023/04/27 01:53:26;;;;;;;;;;;;;;;10.42;100.00;99153.81;5043912;28;19927;-39
2023/04/27 01:55:51;;;;;;;;;;;;;;;10.51;100.00;99157.00;5040649;28;19925;-39
2023/04/27 01:58:16;;;;;;;;;;;;;;;10.59;100.00;99161.03;5019980;28;19928;-39
2023/04/27 02:00:41;;;;;;;;;;;;;;;10.62;100.00;99160.09;5040740;28;20288;-39
2023/04/27 02:03:07;;;;;;;;;;;;;;;10.49;100.00;99174.22;5041805;28;20011;-39
2023/04/27 02:05:32;;;;;;;;;;;;;;;10.67;100.00;99168.53;5039707;28;20008;-39
2023/04/27 02:07:57;;;;;;;;;;;;;;;10.63;100.00;99172.13;5039745;28;20011;-39
2023/04/27 02:10:22;;;;;;;;;;;;;;;10.67;100.00;99168.53;5020228;28;19982;-39
2023/04/27 02:12:47;;;;;;;;;;;;;;;10.53;100.00;99175.81;5021230;28;19960;-39
2023/04/27 02:15:13;;;;;;;;;;;;;;;10.26;100.00;99188.56;5026954;28;19975;-39
2023/04/27 02:17:38;;;;;;;;;;;;;;;10.48;100.00;99188.00;5042062;28;19933;-39
2023/04/27 02:20:07;;;;;;;;;;;;;;;10.38;100.00;99179.69;5037321;28;19923;-40
2023/04/27 02:22:33;;;;;;;;;;;;;;;10.39;100.00;99194.25;5037135;28;19917;-40
2023/04/27 02:24:58;;;;;;;;;;;;;;;10.47;100.00;99192.31;5037646;28;20373;-40
2023/04/27 02:27:23;;;;;;;;;;;;;;;10.39;100.00;99199.41;5037091;28;20373;-40
2023/04/27 02:29:48;;;;;;;;;;;;;;;10.58;100.00;99192.84;5037917;28;20167;-40
2023/04/27 02:32:14;;;;;;;;;;;;;;;10.69;100.00;99182.22;5036528;28;20015;-40
2023/04/27 02:34:40;;;;;;;;;;;;;;;10.67;100.00;99178.84;5036598;28;19921;-40
2023/04/27 02:37:05;;;;;;;;;;;;;;;10.65;100.00;99189.19;5035862;28;20312;-40
2023/04/27 02:39:30;;;;;;;;;;;;;;;10.76;100.00;99191.44;5019647;28;19917;-40
2023/04/27 02:41:55;;;;;;;;;;;;;;;10.84;100.00;99186.06;5037276;28;19997;-40
2023/04/27 02:44:21;;;;;;;;;;;;;;;10.72;100.00;99187.28;5036809;28;19921;-40
2023/04/27 02:46:46;;;;;;;;;;;;;;;10.65;100.00;99196.94;5036236;28;19921;-40
2023/04/27 02:49:11;;;;;;;;;;;;;;;10.71;100.00;99190.75;5036420;28;19917;-40
2023/04/27 02:51:36;;;;;;;;;;;;;;;10.80;100.00;99185.31;5049482;28;19920;-40
2023/04/27 02:54:01;;;;;;;;;;;;;;;10.79;100.00;99177.66;5040206;28;19996;-40
2023/04/27 02:56:27;;;;;;;;;;;;;;;10.68;100.00;99170.25;5038908;28;20023;-40
2023/04/27 02:58:52;;;;;;;;;;;;;;;10.81;100.00;99176.72;5037722;28;19920;-40
2023/04/27 03:01:17;;;;;;;;;;;;;;;10.35;100.00;99183.19;5036331;28;19925;-40
2023/04/27 03:03:46;;;;;;;;;;;;;;;10.77;100.00;99169.97;5035363;28;20031;-40
2023/04/27 03:06:11;;;;;;;;;;;;;;;10.61;100.00;99179.03;5037336;28;20162;-40
2023/04/27 03:08:37;;;;;;;;;;;;;;;10.64;100.00;99174.63;5036813;28;19932;-40
2023/04/27 03:11:02;;;;;;;;;;;;;;;10.46;100.00;99176.00;5036337;28;19978;-40
2023/04/27 03:13:28;;;;;;;;;;;;;;;10.56;100.00;99183.44;5036428;28;19928;-40
2023/04/27 03:15:53;;;;;;;;;;;;;;;10.47;100.00;99176.88;5018556;28;19921;-40
2023/04/27 03:18:18;;;;;;;;;;;;;;;10.16;100.00;99182.00;5035979;28;20050;-40
2023/04/27 03:20:43;;;;;;;;;;;;;;;10.18;100.00;99203.38;5037071;28;20002;-40
2023/04/27 03:23:08;;;;;;;;;;;;;;;10.33;100.00;99192.69;5036485;28;19960;-40
2023/04/27 03:25:34;;;;;;;;;;;;;;;9.93;100.00;99198.03;5038975;28;19956;-40
2023/04/27 03:27:59;;;;;;;;;;;;;;;9.98;100.00;99209.88;5039190;28;19925;-40
2023/04/27 03:30:24;;;;;;;;;;;;;;;10.05;100.00;99198.53;5036337;28;19917;-40
2023/04/27 03:32:50;;;;;;;;;;;;;;;9.99;100.00;99192.72;5035563;28;19928;-40
2023/04/27 03:35:15;;;;;;;;;;;;;;;9.52;100.00;99234.19;5036670;28;19917;-40
2023/04/27 03:37:40;;;;;;;;;;;;;;;9.12;100.00;99222.28;5035725;28;20322;-40
2023/04/27 03:40:06;;;;;;;;;;;;;;;9.39;100.00;99212.22;5036571;28;19920;-40
2023/04/27 03:42:31;;;;;;;;;;;;;;;9.72;100.00;99212.31;5036532;28;20029;-40
2023/04/27 03:44:57;;;;;;;;;;;;;;;9.17;100.00;99204.19;5036452;28;19927;-40
2023/04/27 03:47:22;;;;;;;;;;;;;;;8.45;100.00;99250.19;5038559;28;19998;-40
2023/04/27 03:49:47;;;;;;;;;;;;;;;9.25;100.00;99232.28;5039006;28;20213;-40
2023/04/27 03:52:12;;;;;;;;;;;;;;;9.63;100.00;99219.34;5039034;28;19973;-40
2023/04/27 03:54:38;;;;;;;;;;;;;;;8.68;100.00;99226.63;5036539;28;19948;-40
2023/04/27 03:57:03;;;;;;;;;;;;;;;9.07;100.00;99241.22;5035761;28;19951;-40
2023/04/27 03:59:29;;;;;;;;;;;;;;;9.06;100.00;99248.09;5039160;28;19917;-40
2023/04/27 04:01:54;;;;;;;;;;;;;;;8.45;100.00;99251.94;5042821;28;21414;-40
2023/04/27 04:04:20;;;;;;;;;;;;;;;9.53;100.00;99232.47;5040297;28;20300;-40
2023/04/27 04:06:45;;;;;;;;;;;;;;;9.38;100.00;99225.97;5042903;28;19927;-40
2023/04/27 04:09:11;;;;;;;;;;;;;;;9.48;100.00;99230.00;5041743;28;19993;-40
2023/04/27 04:11:36;;;;;;;;;;;;;;;9.27;100.00;99225.38;5025271;28;20359;-40
2023/04/27 04:14:02;;;;;;;;;;;;;;;8.04;100.00;99276.59;5024851;28;19927;-40
2023/04/27 04:16:27;;;;;;;;;;;;;;;8.20;100.00;99283.13;5045819;28;20092;-40
2023/04/27 04:18:52;;;;;;;;;;;;;;;8.53;100.00;99278.28;5045706;28;20479;-40
2023/04/27 04:21:17;;;;;;;;;;;;;;;8.00;100.00;99280.06;5039355;28;20448;-40
2023/04/27 04:23:43;;;;;;;;;;;;;;;8.40;100.00;99266.56;5022161;28;20444;-40
2023/04/27 04:26:08;;;;;;;;;;;;;;;9.17;100.00;99243.56;5044647;28;19960;-40
2023/04/27 04:28:34;;;;;;;;;;;;;;;9.38;100.00;99234.53;5028103;28;20254;-41
2023/04/27 04:31:02;;;;;;;;;;;;;;;9.41;100.00;99231.88;5042433;28;19917;-40
2023/04/27 04:33:27;;;;;;;;;;;;;;;9.08;100.00;99240.38;5040488;28;20225;-40
2023/04/27 04:35:53;;;;;;;;;;;;;;;9.11;100.00;99246.28;5036537;28;20111;-40
2023/04/27 04:38:18;;;;;;;;;;;;;;;9.18;100.00;99258.09;5037104;28;19924;-40
2023/04/27 04:40:43;;;;;;;;;;;;;;;9.14;100.00;99261.59;5051558;28;20316;-40
2023/04/27 04:43:08;;;;;;;;;;;;;;;9.23;100.00;99254.59;5032514;28;19916;-40
2023/04/27 04:45:34;;;;;;;;;;;;;;;8.68;100.00;99267.72;5042419;28;19921;-40
2023/04/27 04:48:02;;;;;;;;;;;;;;;9.00;100.00;99271.34;5045240;28;20359;-40
2023/04/27 04:50:28;;;;;;;;;;;;;;;8.34;100.00;99288.84;5049820;28;19923;-40
2023/04/27 04:52:53;;;;;;;;;;;;;;;8.00;100.00;99298.03;5022143;28;19921;-40
2023/04/27 04:55:18;;;;;;;;;;;;;;;8.52;100.00;99292.00;5044648;28;19920;-40
2023/04/27 04:57:43;;;;;;;;;;;;;;;8.71;100.00;99293.34;5043727;28;20285;-40
2023/04/27 05:00:12;;;;;;;;;;;;;;;8.99;100.00;99283.34;5046860;28;20369;-40
2023/04/27 05:02:40;;;;;;;;;;;;;;;7.52;100.00;99307.31;5045941;28;19986;-40
2023/04/27 05:05:06;;;;;;;;;;;;;;;7.63;100.00;99324.25;5040579;28;20003;-40
2023/04/27 05:07:31;;;;;;;;;;;;;;;7.34;100.00;99333.19;5043634;28;20011;-40
2023/04/27 05:09:57;;;;;;;;;;;;;;;7.81;100.00;99329.09;5042509;28;19925;-40
2023/04/27 05:12:22;;;;;;;;;;;;;;;9.04;100.00;99311.50;5043321;28;19975;-40
2023/04/27 05:14:47;;;;;;;;;;;;;;;8.37;100.00;99319.63;5044648;28;19988;-40
2023/04/27 05:17:12;;;;;;;;;;;;;;;8.90;100.00;99310.97;5039871;28;19964;-40
2023/04/27 05:19:38;;;;;;;;;;;;;;;8.53;100.00;99303.94;5043395;28;19971;-40
2023/04/27 05:22:03;;;;;;;;;;;;;;;8.79;100.00;99317.13;5042415;28;19991;-40
2023/04/27 05:24:28;;;;;;;;;;;;;;;9.40;100.00;99293.63;5038867;28;20026;-40
2023/04/27 05:26:53;;;;;;;;;;;;;;;9.23;100.00;99288.00;5044649;28;19983;-40
2023/04/27 05:29:19;;;;;;;;;;;;;;;8.96;100.00;99303.09;5043010;28;20369;-40
2023/04/27 05:31:44;;;;;;;;;;;;;;;8.31;100.00;99312.03;5043315;28;20337;-40
2023/04/27 05:34:09;;;;;;;;;;;;;;;10.12;100.00;99291.03;5044730;28;19990;-40
2023/04/27 05:36:35;;;;;;;;;;;;;;;10.05;100.00;99268.00;5046977;28;19929;-40
2023/04/27 05:39:00;;;;;;;;;;;;;;;8.89;100.00;99298.97;5044775;28;20197;-40
2023/04/27 05:41:26;;;;;;;;;;;;;;;9.27;100.00;99315.31;5045724;28;19931;-40
2023/04/27 05:43:52;;;;;;;;;;;;;;;10.36;100.00;99285.28;5049676;28;20670;-42
2023/04/27 05:46:17;;;;;;;;;;;;;;;10.24;100.00;99288.13;5041729;28;19920;-40
2023/04/27 05:48:42;;;;;;;;;;;;;;;9.90;100.00;99281.28;5038407;28;19924;-40
2023/04/27 05:51:08;;;;;;;;;;;;;;;10.96;100.00;99272.47;5048777;28;19965;-40
2023/04/27 05:53:33;;;;;;;;;;;;;;;8.94;100.00;99289.44;5045407;28;20285;-40
2023/04/27 05:55:59;;;;;;;;;;;;;;;9.31;100.00;99301.53;5042146;28;20273;-40
2023/04/27 05:58:25;;;;;;;;;;;;;;;8.22;100.00;99325.00;5043099;28;20405;-40
2023/04/27 06:00:51;;;;;;;;;;;;;;;8.11;100.00;99335.44;5021575;28;19920;-40
2023/04/27 06:03:16;;;;;;;;;;;;;;;8.59;100.00;99339.78;5039134;28;19993;-40
2023/04/27 06:05:41;;;;;;;;;;;;;;;9.42;100.00;99315.00;5039200;28;19920;-41
2023/04/27 06:08:06;;;;;;;;;;;;;;;9.42;100.00;99286.72;5043216;28;19965;-40
2023/04/27 06:10:32;;;;;;;;;;;;;;;10.32;100.00;99275.94;5038714;28;19940;-40
2023/04/27 06:12:57;;;;;;;;;;;;;;;8.81;100.00;99318.84;5042614;28;19924;-40
2023/04/27 06:15:22;;;;;;;;;;;;;;;9.90;100.00;99296.72;5040857;28;20365;-45
2023/04/27 06:17:47;;;;;;;;;;;;;;;8.89;100.00;99334.94;5041104;28;19978;-40
2023/04/27 06:20:13;;;;;;;;;;;;;;;8.58;100.00;99344.06;5037962;28;19972;-40
2023/04/27 06:22:38;;;;;;;;;;;;;;;9.32;100.00;99341.75;5023943;28;19991;-40
2023/04/27 06:25:06;;;;;;;;;;;;;;;9.02;100.00;99320.13;5042319;28;19927;-40
2023/04/27 06:27:32;;;;;;;;;;;;;;;8.23;100.00;99354.91;5039634;28;20572;-39
2023/04/27 06:29:57;;;;;;;;;;;;;;;8.71;100.00;99339.56;5041149;28;19917;-39
2023/04/27 06:32:22;;;;;;;;;;;;;;;9.77;100.00;99315.91;5036924;28;19917;-39
2023/04/27 06:34:48;;;;;;;;;;;;;;;10.11;100.00;99297.06;5038954;28;19920;-39
2023/04/27 06:37:15;;;;;;;;;;;;;;;10.40;100.00;99298.91;5044346;28;20017;-40
2023/04/27 06:39:41;;;;;;;;;;;;;;;9.97;100.00;99305.97;5043910;28;19978;-39
2023/04/27 06:42:07;;;;;;;;;;;;;;;9.03;100.00;99317.50;5041812;28;19921;-39
2023/04/27 06:44:32;;;;;;;;;;;;;;;10.19;100.00;99279.69;5042606;28;19924;-39
2023/04/27 06:46:57;;;;;;;;;;;;;;;9.13;100.00;99311.31;5037558;28;19917;-39
2023/04/27 06:49:22;;;;;;;;;;;;;;;9.93;100.00;99309.50;5042531;28;19923;-40
2023/04/27 06:51:48;;;;;;;;;;;;;;;9.91;100.00;99293.25;5041486;28;19920;-40
2023/04/27 06:54:13;;;;;;;;;;;;;;;11.05;100.00;99254.16;5047317;28;19923;-40
2023/04/27 06:56:38;;;;;;;;;;;;;;;10.49;100.00;99251.47;5040322;28;20501;-39
2023/04/27 06:59:03;;;;;;;;;;;;;;;10.41;100.00;99275.69;5040737;28;19928;-40
2023/04/27 07:01:29;;;;;;;;;;;;;;;10.20;100.00;99277.09;5038337;28;19921;-39
2023/04/27 07:03:54;;;;;;;;;;;;;;;10.86;100.00;99244.41;5037957;28;19921;-39
2023/04/27 07:06:19;;;;;;;;;;;;;;;12.17;100.00;99213.59;5037841;28;20194;-39
2023/04/27 07:08:44;;;;;;;;;;;;;;;9.67;100.00;99255.28;5037783;28;20004;-39
2023/04/27 07:11:10;;;;;;;;;;;;;;;10.21;100.00;99236.75;5040689;28;19920;-40
2023/04/27 07:13:35;;;;;;;;;;;;;;;10.88;100.00;99219.44;5040612;28;19974;-40
2023/04/27 07:16:00;;;;;;;;;;;;;;;10.30;100.00;99223.66;5040935;28;20023;-40
2023/04/27 07:18:27;;;;;;;;;;;;;;;11.08;100.00;99230.84;5040391;28;19929;-40
2023/04/27 07:20:52;;;;;;;;;;;;;;;10.09;100.00;99207.03;5044264;28;19952;-39
2023/04/27 07:23:17;;;;;;;;;;;;;;;10.53;100.00;99217.03;5043547;28;20031;-39
2023/04/27 07:25:44;;;;;;;;;;;;;;;11.34;100.00;99190.56;5039074;28;19971;-39
2023/04/27 07:28:09;;;;;;;;;;;;;;;10.77;100.00;99206.03;5040332;28;19924;-39
2023/04/27 07:30:35;;;;;;;;;;;;;;;12.76;100.00;99153.75;5038710;28;19917;-39
2023/04/27 07:33:01;;;;;;;;;;;;;;;11.96;100.00;99195.38;5039794;28;20929;-39
2023/04/27 07:35:26;;;;;;;;;;;;;;;12.31;100.00;99181.22;5042817;28;19920;-39
2023/04/27 07:37:51;;;;;;;;;;;;;;;13.41;100.00;99133.09;5043026;28;20545;-39
2023/04/27 07:40:17;;;;;;;;;;;;;;;12.19;100.00;99186.00;5022157;28;19920;-39
2023/04/27 07:42:42;;;;;;;;;;;;;;;12.37;100.00;99174.16;5043010;28;19920;-39
2023/04/27 07:45:08;;;;;;;;;;;;;;;12.19;98.86;99155.84;5042483;28;20110;-40
2023/04/27 07:47:33;;;;;;;;;;;;;;;10.86;99.65;99180.00;5038323;28;19921;-39
2023/04/27 07:49:58;;;;;;;;;;;;;;;12.70;100.00;99161.72;5036430;28;19925;-39
2023/04/27 07:52:24;;;;;;;;;;;;;;;12.64;96.56;99126.63;5046579;28;19920;-40
2023/04/27 07:54:49;;;;;;;;;;;;;;;13.17;97.00;99130.59;5042809;28;20066;-40
2023/04/27 07:57:15;;;;;;;;;;;;;;;12.29;99.86;99172.72;5049080;28;20311;-40
2023/04/27 07:59:40;;;;;;;;;;;;;;;13.62;97.61;99127.03;5047146;28;19932;-40
2023/04/27 08:02:06;;;;;;;;;;;;;;;13.46;98.32;99141.53;5043035;28;20654;-39
2023/04/27 08:04:31;;;;;;;;;;;;;;;12.60;96.95;99150.06;5041205;28;19921;-40
2023/04/27 08:06:56;;;;;;;;;;;;;;;11.53;96.61;99158.09;5043009;28;20003;-39
2023/04/27 08:09:21;;;;;;;;;;;;;;;13.73;97.89;99140.34;5034431;28;19978;-39
2023/04/27 08:11:47;;;;;;;;;;;;;;;14.13;92.10;99099.75;5043258;28;19944;-40
2023/04/27 08:14:12;;;;;;;;;;;;;;;12.70;90.88;99115.19;5043020;28;19970;-40
2023/04/27 08:16:41;;;;;;;;;;;;;;;12.49;95.89;99165.94;5040405;28;19975;-39
2023/04/27 08:19:08;;;;;;;;;;;;;;;12.73;95.49;99148.69;5021667;28;20289;-39
2023/04/27 08:21:33;;;;;;;;;;;;;;;13.49;92.68;99121.53;5044351;28;20547;-39
2023/04/27 08:23:58;;;;;;;;;;;;;;;13.05;87.50;99084.56;5040795;28;19966;-39
2023/04/27 08:26:23;;;;;;;;;;;;;;;12.67;90.77;99133.41;5040521;28;19921;-39
2023/04/27 08:28:49;;;;;;;;;;;;;;;14.80;89.69;99102.75;5038122;28;19978;-39
2023/04/27 08:31:14;;;;;;;;;;;;;;;12.68;89.69;99135.09;5032616;28;19920;-40
2023/04/27 08:33:40;;;;;;;;;;;;;;;12.89;87.72;99110.19;5038013;28;20723;-39
2023/04/27 08:36:05;;;;;;;;;;;;;;;13.16;84.84;99083.19;5019136;28;19925;-40
2023/04/27 08:38:32;;;;;;;;;;;;;;;13.27;82.20;99072.38;5043819;28;19920;-39
2023/04/27 08:40:57;;;;;;;;;;;;;;;13.50;77.76;99034.38;5037762;28;19923;-40
2023/04/27 08:43:22;;;;;;;;;;;;;;;13.99;80.20;99068.47;5041030;28;19921;-39
2023/04/27 08:45:49;;;;;;;;;;;;;;;13.69;78.02;99049.97;5040295;28;19931;-39
2023/04/27 08:48:14;;;;;;;;;;;;;;;15.12;76.56;99025.13;5042834;28;19921;-39
2023/04/27 08:50:39;;;;;;;;;;;;;;;15.29;70.85;99001.78;5041397;28;19920;-40
2023/04/27 08:53:05;;;;;;;;;;;;;;;13.95;74.08;99035.84;5022956;28;19974;-40
2023/04/27 08:55:30;;;;;;;;;;;;;;;15.56;72.04;99009.06;5017994;28;19974;-40
2023/04/27 08:57:56;;;;;;;;;;;;;;;14.10;71.73;99022.22;5039767;28;19918;-40
2023/04/27 09:00:22;;;;;;;;;;;;;;;15.47;73.37;99024.19;5043856;28;19920;-40
2023/04/27 09:02:47;;;;;;;;;;;;;;;15.32;67.59;98990.41;4977117;28;1797080;-40
2023/04/27 09:05:20;;;;;;;;;;;;;;;14.69;65.51;98975.41;5042223;28;19920;-40
2023/04/27 09:08:01;;;;;;;;;;;;;;;13.15;60.35;98941.03;5043315;28;19913;-40
2023/04/27 09:10:28;;;;;;;;;;;;;;;13.43;70.01;99028.63;5043437;28;20027;-40
2023/04/27 09:12:56;;;;;;;;;;;;;;;14.81;69.20;99005.94;5040743;28;19917;-39
2023/04/27 09:15:22;;;;;;;;;;;;;;;15.69;66.87;98973.72;5041735;28;19917;-40
2023/04/27 09:17:52;;;;;;;;;;;;;;;14.67;63.11;98972.09;5022937;28;20396;-40
2023/04/27 09:20:17;;;;;;;;;;;;;;;16.36;67.67;98973.63;5040765;28;20720;-39
2023/04/27 09:22:47;;;;;;;;;;;;;;;16.80;68.06;98989.28;5024762;28;19942;-40
2023/04/27 09:25:26;;;;;;;;;;;;;;;15.80;62.64;98962.81;5044475;28;19917;-40
2023/04/27 09:27:51;;;;;;;;;;;;;;;17.61;66.29;98991.44;5039334;28;19917;-40
2023/04/27 09:30:16;;;;;;;;;;;;;;;15.23;64.39;99015.06;5039411;28;19913;-40
2023/04/27 09:32:48;;;;;;;;;;;;;;;16.34;61.69;98971.09;5044748;28;20369;-40
2023/04/27 09:35:18;;;;;;;;;;;;;;;16.82;62.81;98978.81;5049725;28;19923;-40
2023/04/27 09:37:43;;;;;;;;;;;;;;;16.12;58.17;98955.84;5023784;28;20197;-40
2023/04/27 09:40:08;;;;;;;;;;;;;;;14.22;53.61;98915.44;5026467;28;19920;-40
2023/04/27 09:42:34;;;;;;;;;;;;;;;15.09;55.84;98937.13;5040169;28;19924;-40
2023/04/27 09:45:00;;;;;;;;;;;;;;;16.00;58.85;98944.38;5040351;28;19925;-40
2023/04/27 09:47:27;;;;;;;;;;;;;;;17.29;54.58;98908.34;5045344;28;19917;-40
2023/04/27 09:49:52;;;;;;;;;;;;;;;16.80;52.79;98908.66;5012606;28;19920;-40
2023/04/27 09:52:17;;;;;;;;;;;;;;;16.67;55.06;98921.53;5044880;28;20339;-40
2023/04/27 09:54:42;;;;;;;;;;;;;;;18.54;57.70;98923.91;5052569;28;20378;-40
2023/04/27 09:57:20;;;;;;;;;;;;;;;17.06;55.40;98909.75;5048332;28;20304;-40
2023/04/27 10:00:13;;;;;;;;;;;;;;;17.80;53.09;98889.56;5028693;28;20403;-40
2023/04/27 10:02:41;;;;;;;;;;;;;;;14.09;54.72;98935.06;5013446;28;20007;-40
2023/04/27 10:05:27;;;;;;;;;;;;;;;17.66;59.71;98939.09;5031313;28;19920;-38
2023/04/27 10:07:52;;;;;;;;;;;;;;;15.37;55.75;98926.13;5040827;28;19916;-38
2023/04/27 10:10:18;;;;;;;;;;;;;;;18.54;53.96;98882.19;5027618;28;20237;-40
2023/04/27 10:12:53;;;;;;;;;;;;;;;16.70;50.46;98871.94;5039202;28;19913;-39
2023/04/27 10:15:19;;;;;;;;;;;;;;;15.41;55.42;98925.88;5038313;28;19925;-39
2023/04/27 10:17:53;;;;;;;;;;;;;;;15.37;53.75;98890.66;5019934;28;19959;-40
2023/04/27 10:20:27;;;;;;;;;;;;;;;15.68;57.33;98917.56;5038507;28;19923;-40
2023/04/27 10:22:52;;;;;;;;;;;;;;;16.91;54.42;98898.47;5046555;28;20000;-39
2023/04/27 10:25:20;;;;;;;;;;;;;;;16.78;51.84;98870.66;5042365;28;20027;-40
2023/04/27 10:27:54;;;;;;;;;;;;;;;16.63;49.08;98860.25;5046034;28;19917;-39
2023/04/27 10:30:20;;;;;;;;;;;;;;;16.58;49.92;98858.81;5043849;28;19925;-40
2023/04/27 10:32:50;;;;;;;;;;;;;;;16.61;54.54;98895.88;5022228;28;19913;-40
2023/04/27 10:35:15;;;;;;;;;;;;;;;16.68;52.40;98883.38;5046259;28;19917;-40
2023/04/27 10:37:41;;;;;;;;;;;;;;;16.06;52.51;98878.28;5024742;28;20332;-41
2023/04/27 10:40:13;;;;;;;;;;;;;;;16.20;58.09;98914.69;5045906;28;20389;-40
2023/04/27 10:42:38;;;;;;;;;;;;;;;16.09;57.35;98922.25;5044096;28;19912;-40
2023/04/27 10:45:04;;;;;;;;;;;;;;;15.31;49.76;98853.81;5041281;28;19935;-40
2023/04/27 10:47:39;;;;;;;;;;;;;;;16.79;50.44;98848.94;5046265;28;19959;-40
2023/04/27 10:50:07;;;;;;;;;;;;;;;16.01;55.50;98901.91;5040995;28;19924;-40
2023/04/27 10:52:32;;;;;;;;;;;;;;;17.37;52.93;98860.16;5041772;28;20405;-40
2023/04/27 10:54:57;;;;;;;;;;;;;;;17.04;60.37;98929.81;5047233;28;19952;-40
2023/04/27 10:57:22;;;;;;;;;;;;;;;15.70;54.35;98868.97;5043631;28;19924;-40
2023/04/27 10:59:49;;;;;;;;;;;;;;;16.25;54.97;98880.66;5023189;28;19921;-40
2023/04/27 11:02:14;;;;;;;;;;;;;;;15.01;55.96;98898.63;5045069;28;19943;-40
2023/04/27 11:04:40;;;;;;;;;;;;;;;15.40;58.91;98908.66;5045601;28;20467;-40
2023/04/27 11:07:09;;;;;;;;;;;;;;;16.47;60.79;98916.66;5039750;28;19921;-40
2023/04/27 11:09:35;;;;;;;;;;;;;;;19.24;56.54;98855.69;5042755;28;19916;-40
2023/04/27 11:12:00;;;;;;;;;;;;;;;17.50;51.04;98822.03;5045424;28;19923;-40
2023/04/27 11:14:26;;;;;;;;;;;;;;;16.86;52.51;98824.25;5044690;28;20541;-40
2023/04/27 11:16:51;;;;;;;;;;;;;;;17.24;57.34;98867.91;5046321;28;19931;-40
2023/04/27 11:19:16;;;;;;;;;;;;;;;18.72;50.45;98817.50;5024948;28;20011;-39
2023/04/27 11:21:41;;;;;;;;;;;;;;;17.23;48.83;98803.78;5042606;28;20008;-39
2023/04/27 11:24:07;;;;;;;;;;;;;;;17.10;47.19;98785.47;5044050;28;20028;-40
2023/04/27 11:26:32;;;;;;;;;;;;;;;17.38;49.10;98797.63;5041504;28;20292;-40
2023/04/27 11:28:57;;;;;;;;;;;;;;;16.45;49.47;98833.56;5039993;28;19924;-40
2023/04/27 11:32:00;;;;;;;;;;;;;;;16.71;56.26;98876.22;5029487;28;19928;-40
2023/04/27 11:34:25;;;;;;;;;;;;;;;17.13;56.49;98866.81;5050775;28;19917;-39
2023/04/27 11:37:07;;;;;;;;;;;;;;;16.21;53.37;98867.00;5047331;28;19925;-39
2023/04/27 11:39:33;;;;;;;;;;;;;;;17.27;49.78;98806.09;5014097;28;20457;-40
2023/04/27 11:42:15;;;;;;;;;;;;;;;18.55;53.48;98840.38;5026944;28;20743;-40
2023/04/27 11:44:40;;;;;;;;;;;;;;;19.42;47.99;98783.88;5028146;28;19917;-40
2023/04/27 11:47:05;;;;;;;;;;;;;;;18.57;47.03;98794.16;5024649;28;20369;-40
2023/04/27 11:49:31;;;;;;;;;;;;;;;17.45;47.78;98811.09;5015231;28;20333;-40
2023/04/27 11:51:56;;;;;;;;;;;;;;;17.76;50.67;98836.81;5024651;28;19964;-40
2023/04/27 11:54:26;;;;;;;;;;;;;;;17.83;48.89;98819.06;5016645;28;19963;-39
2023/04/27 11:56:52;;;;;;;;;;;;;;;18.15;48.83;98824.78;5018152;28;19925;-40
2023/04/27 11:59:20;;;;;;;;;;;;;;;17.61;49.27;98813.50;5017598;28;20776;-40
2023/04/27 12:01:45;;;;;;;;;;;;;;;18.30;55.08;98863.81;5015792;28;20437;-40
2023/04/27 12:04:11;;;;;;;;;;;;;;;17.18;48.85;98816.25;5021155;28;19921;-40
2023/04/27 12:06:37;;;;;;;;;;;;;;;17.60;49.31;98817.91;5023846;28;19921;-40
2023/04/27 12:09:03;;;;;;;;;;;;;;;18.97;49.07;98796.63;5019751;28;19921;-40
2023/04/27 12:11:28;;;;;;;;;;;;;;;18.58;50.14;98831.50;5002152;28;20011;-40
2023/04/27 12:13:53;;;;;;;;;;;;;;;19.81;48.77;98807.25;5026469;28;20293;-40
2023/04/27 12:16:20;;;;;;;;;;;;;;;16.83;53.03;98863.44;5022549;28;19928;-40
2023/04/27 12:18:46;;;;;;;;;;;;;;;18.48;49.19;98807.00;5021012;28;19947;-40
2023/04/27 12:21:11;;;;;;;;;;;;;;;18.27;50.83;98817.91;5027714;28;19920;-40
2023/04/27 12:23:37;;;;;;;;;;;;;;;17.66;51.80;98827.09;5027566;28;19921;-40
2023/04/27 12:26:02;;;;;;;;;;;;;;;17.82;52.01;98833.03;5026725;28;19921;-40
2023/04/27 12:28:27;;;;;;;;;;;;;;;19.53;46.84;98767.44;5025063;28;19917;-40
2023/04/27 12:30:52;;;;;;;;;;;;;;;18.47;48.64;98802.69;5022531;28;20595;-40
2023/04/27 12:33:18;;;;;;;;;;;;;;;16.66;53.00;98841.84;5024066;28;20723;-41
2023/04/27 12:35:43;;;;;;;;;;;;;;;18.11;53.30;98828.53;5030873;28;19947;-40
2023/04/27 12:38:08;;;;;;;;;;;;;;;18.88;50.38;98812.09;5022751;28;20116;-40